sensor_id;sensor_type;location;lat;lon;timestamp;pressure;altitude;pressure_sealevel;temperature;humidity
74334;BME280;62753;40.394;-80.022;2023-02-28T00:01:00;94748.62;;;6.97;73.13
74334;BME280;62753;40.394;-80.022;2023-02-28T00:03:25;94742.67;;;6.88;74.43
74334;BME280;62753;40.394;-80.022;2023-02-28T00:05:51;94743.90;;;7.18;73.26
74334;BME280;62753;40.394;-80.022;2023-02-28T00:08:16;94729.37;;;6.83;74.98
74334;BME280;62753;40.394;-80.022;2023-02-28T00:10:42;94741.82;;;6.39;75.59
74334;BME280;62753;40.394;-80.022;2023-02-28T00:13:08;94741.04;;;6.91;74.68
74334;BME280;62753;40.394;-80.022;2023-02-28T00:15:33;94743.83;;;6.43;75.76
74334;BME280;62753;40.394;-80.022;2023-02-28T00:17:58;94757.84;;;6.58;75.74
74334;BME280;62753;40.394;-80.022;2023-02-28T00:20:24;94770.69;;;6.70;75.00
74334;BME280;62753;40.394;-80.022;2023-02-28T00:22:52;94762.96;;;6.90;74.65
74334;BME280;62753;40.394;-80.022;2023-02-28T00:25:17;94809.42;;;8.39;69.59
74334;BME280;62753;40.394;-80.022;2023-02-28T00:27:42;94832.67;;;10.67;61.59
74334;BME280;62753;40.394;-80.022;2023-02-28T00:30:09;94843.47;;;10.50;58.42
74334;BME280;62753;40.394;-80.022;2023-02-28T00:32:31;94873.43;;;9.67;60.23
74334;BME280;62753;40.394;-80.022;2023-02-28T00:34:57;94870.15;;;9.80;60.65
74334;BME280;62753;40.394;-80.022;2023-02-28T00:37:22;94917.83;;;9.83;61.42
74334;BME280;62753;40.394;-80.022;2023-02-28T00:39:48;94973.27;;;11.46;56.22
74334;BME280;62753;40.394;-80.022;2023-02-28T00:42:14;94995.97;;;11.13;55.66
74334;BME280;62753;40.394;-80.022;2023-02-28T00:44:39;94954.73;;;10.45;58.37
74334;BME280;62753;40.394;-80.022;2023-02-28T00:47:05;94950.01;;;10.22;59.58
74334;BME280;62753;40.394;-80.022;2023-02-28T00:49:30;94962.13;;;9.45;61.49
74334;BME280;62753;40.394;-80.022;2023-02-28T00:51:55;94949.00;;;9.00;64.08
74334;BME280;62753;40.394;-80.022;2023-02-28T00:54:21;94922.24;;;8.63;67.14
74334;BME280;62753;40.394;-80.022;2023-02-28T00:56:46;94941.85;;;10.36;60.66
74334;BME280;62753;40.394;-80.022;2023-02-28T00:59:12;94931.18;;;10.87;59.08
74334;BME280;62753;40.394;-80.022;2023-02-28T01:01:36;94907.46;;;9.74;62.23
74334;BME280;62753;40.394;-80.022;2023-02-28T01:04:03;94923.69;;;10.51;61.69
74334;BME280;62753;40.394;-80.022;2023-02-28T01:06:27;94942.50;;;11.19;57.92
74334;BME280;62753;40.394;-80.022;2023-02-28T01:08:52;94930.23;;;11.61;57.06
74334;BME280;62753;40.394;-80.022;2023-02-28T01:11:18;94942.02;;;12.54;52.51
74334;BME280;62753;40.394;-80.022;2023-02-28T01:13:45;94948.80;;;13.33;50.10
74334;BME280;62753;40.394;-80.022;2023-02-28T01:16:08;94951.45;;;14.48;47.86
74334;BME280;62753;40.394;-80.022;2023-02-28T01:18:34;94963.55;;;14.53;47.46
74334;BME280;62753;40.394;-80.022;2023-02-28T01:21:03;94963.06;;;15.25;45.55
74334;BME280;62753;40.394;-80.022;2023-02-28T01:23:24;94965.95;;;15.16;44.42
74334;BME280;62753;40.394;-80.022;2023-02-28T01:25:49;94972.20;;;15.47;44.26
74334;BME280;62753;40.394;-80.022;2023-02-28T01:28:16;94963.91;;;14.74;45.23
74334;BME280;62753;40.394;-80.022;2023-02-28T01:30:41;94973.88;;;15.13;44.20
74334;BME280;62753;40.394;-80.022;2023-02-28T01:33:06;94978.67;;;14.77;46.12
74334;BME280;62753;40.394;-80.022;2023-02-28T01:35:33;94980.71;;;15.46;44.09
74334;BME280;62753;40.394;-80.022;2023-02-28T01:37:56;94979.34;;;15.69;44.77
74334;BME280;62753;40.394;-80.022;2023-02-28T01:40:22;94975.56;;;15.34;44.85
74334;BME280;62753;40.394;-80.022;2023-02-28T01:42:47;94972.49;;;15.63;44.60
74334;BME280;62753;40.394;-80.022;2023-02-28T01:45:22;94976.06;;;14.41;47.97
74334;BME280;62753;40.394;-80.022;2023-02-28T01:47:41;94981.84;;;14.40;47.85
74334;BME280;62753;40.394;-80.022;2023-02-28T01:50:07;94995.45;;;14.94;47.13
74334;BME280;62753;40.394;-80.022;2023-02-28T01:52:29;94998.96;;;14.95;48.23
74334;BME280;62753;40.394;-80.022;2023-02-28T01:54:56;95004.95;;;15.58;46.69
74334;BME280;62753;40.394;-80.022;2023-02-28T01:57:22;95009.25;;;15.16;48.29
74334;BME280;62753;40.394;-80.022;2023-02-28T01:59:48;95003.78;;;14.92;48.99
74334;BME280;62753;40.394;-80.022;2023-02-28T02:02:10;94994.24;;;15.64;47.17
74334;BME280;62753;40.394;-80.022;2023-02-28T02:04:38;94998.07;;;14.70;48.67
74334;BME280;62753;40.394;-80.022;2023-02-28T02:07:00;95002.59;;;14.92;49.35
74334;BME280;62753;40.394;-80.022;2023-02-28T02:09:25;95010.91;;;15.04;47.86
74334;BME280;62753;40.394;-80.022;2023-02-28T02:11:50;95015.97;;;14.84;48.45
74334;BME280;62753;40.394;-80.022;2023-02-28T02:14:31;95018.58;;;15.53;47.30
74334;BME280;62753;40.394;-80.022;2023-02-28T02:16:53;95031.18;;;15.67;46.04
74334;BME280;62753;40.394;-80.022;2023-02-28T02:19:20;95030.86;;;16.27;44.85
74334;BME280;62753;40.394;-80.022;2023-02-28T02:24:14;95046.58;;;15.87;45.98
74334;BME280;62753;40.394;-80.022;2023-02-28T02:31:27;95055.86;;;16.26;45.82
74334;BME280;62753;40.394;-80.022;2023-02-28T02:36:08;95060.04;;;15.93;47.66
74334;BME280;62753;40.394;-80.022;2023-02-28T02:38:36;95062.24;;;15.79;46.69
74334;BME280;62753;40.394;-80.022;2023-02-28T02:40:58;95061.90;;;16.57;45.33
74334;BME280;62753;40.394;-80.022;2023-02-28T02:43:25;95064.86;;;16.10;44.40
74334;BME280;62753;40.394;-80.022;2023-02-28T02:45:47;95066.62;;;16.05;45.93
74334;BME280;62753;40.394;-80.022;2023-02-28T02:48:14;95076.66;;;16.33;44.86
74334;BME280;62753;40.394;-80.022;2023-02-28T02:50:39;95080.99;;;16.16;45.62
74334;BME280;62753;40.394;-80.022;2023-02-28T02:53:02;95082.75;;;16.05;45.88
74334;BME280;62753;40.394;-80.022;2023-02-28T02:55:27;95090.89;;;16.65;44.56
74334;BME280;62753;40.394;-80.022;2023-02-28T02:57:55;95090.00;;;16.15;44.99
74334;BME280;62753;40.394;-80.022;2023-02-28T03:00:20;95092.80;;;15.06;47.24
74334;BME280;62753;40.394;-80.022;2023-02-28T03:02:43;95090.71;;;16.35;45.76
74334;BME280;62753;40.394;-80.022;2023-02-28T03:05:14;95093.95;;;15.61;46.55
74334;BME280;62753;40.394;-80.022;2023-02-28T03:07:33;95094.81;;;15.44;47.34
74334;BME280;62753;40.394;-80.022;2023-02-28T03:09:59;95096.49;;;15.77;47.41
74334;BME280;62753;40.394;-80.022;2023-02-28T03:12:31;95098.47;;;14.58;50.11
74334;BME280;62753;40.394;-80.022;2023-02-28T03:14:56;95098.73;;;14.82;49.55
74334;BME280;62753;40.394;-80.022;2023-02-28T03:17:25;95105.85;;;15.38;48.96
74334;BME280;62753;40.394;-80.022;2023-02-28T03:19:49;95102.12;;;15.53;48.05
74334;BME280;62753;40.394;-80.022;2023-02-28T03:22:14;95110.89;;;15.04;49.40
74334;BME280;62753;40.394;-80.022;2023-02-28T03:24:36;95109.70;;;14.79;51.61
74334;BME280;62753;40.394;-80.022;2023-02-28T03:27:01;95110.78;;;14.05;52.57
74334;BME280;62753;40.394;-80.022;2023-02-28T03:29:27;95119.04;;;13.60;53.99
74334;BME280;62753;40.394;-80.022;2023-02-28T03:31:52;95124.50;;;15.03;50.90
74334;BME280;62753;40.394;-80.022;2023-02-28T03:34:19;95121.99;;;13.96;51.94
74334;BME280;62753;40.394;-80.022;2023-02-28T03:36:39;95128.56;;;15.03;50.08
74334;BME280;62753;40.394;-80.022;2023-02-28T03:39:05;95135.14;;;15.84;48.53
74334;BME280;62753;40.394;-80.022;2023-02-28T03:41:32;95133.92;;;14.26;50.95
74334;BME280;62753;40.394;-80.022;2023-02-28T03:43:56;95136.11;;;14.81;50.61
74334;BME280;62753;40.394;-80.022;2023-02-28T03:46:23;95136.85;;;14.45;50.95
74334;BME280;62753;40.394;-80.022;2023-02-28T03:48:47;95144.47;;;15.31;49.65
74334;BME280;62753;40.394;-80.022;2023-02-28T03:51:12;95146.34;;;14.32;51.20
74334;BME280;62753;40.394;-80.022;2023-02-28T03:53:37;95154.33;;;14.44;50.97
74334;BME280;62753;40.394;-80.022;2023-02-28T03:56:03;95156.22;;;15.31;49.35
74334;BME280;62753;40.394;-80.022;2023-02-28T03:58:30;95157.84;;;14.93;50.16
74334;BME280;62753;40.394;-80.022;2023-02-28T04:00:55;95158.57;;;15.85;47.86
74334;BME280;62753;40.394;-80.022;2023-02-28T04:03:16;95160.13;;;16.26;46.86
74334;BME280;62753;40.394;-80.022;2023-02-28T04:05:49;95165.56;;;16.58;45.84
74334;BME280;62753;40.394;-80.022;2023-02-28T04:08:08;95171.92;;;16.07;47.26
74334;BME280;62753;40.394;-80.022;2023-02-28T04:10:32;95172.43;;;15.35;48.44
74334;BME280;62753;40.394;-80.022;2023-02-28T04:12:57;95169.62;;;14.24;50.54
74334;BME280;62753;40.394;-80.022;2023-02-28T04:15:22;95181.23;;;14.03;51.53
74334;BME280;62753;40.394;-80.022;2023-02-28T04:17:47;95175.70;;;14.16;52.04
74334;BME280;62753;40.394;-80.022;2023-02-28T04:20:13;95184.22;;;14.53;50.84
74334;BME280;62753;40.394;-80.022;2023-02-28T04:22:38;95183.47;;;15.14;49.14
74334;BME280;62753;40.394;-80.022;2023-02-28T04:25:05;95185.84;;;15.14;47.22
74334;BME280;62753;40.394;-80.022;2023-02-28T04:27:29;95178.68;;;15.15;48.57
74334;BME280;62753;40.394;-80.022;2023-02-28T04:29:54;95183.59;;;14.85;48.44
74334;BME280;62753;40.394;-80.022;2023-02-28T04:32:19;95192.62;;;15.52;46.43
74334;BME280;62753;40.394;-80.022;2023-02-28T04:34:45;95192.99;;;15.44;46.27
74334;BME280;62753;40.394;-80.022;2023-02-28T04:37:10;95197.74;;;15.59;46.99
74334;BME280;62753;40.394;-80.022;2023-02-28T04:39:37;95188.98;;;14.98;47.97
74334;BME280;62753;40.394;-80.022;2023-02-28T04:42:01;95186.18;;;14.34;49.65
74334;BME280;62753;40.394;-80.022;2023-02-28T04:44:26;95191.60;;;13.95;50.71
74334;BME280;62753;40.394;-80.022;2023-02-28T04:46:51;95191.26;;;14.24;50.39
74334;BME280;62753;40.394;-80.022;2023-02-28T04:49:17;95195.71;;;14.98;49.39
74334;BME280;62753;40.394;-80.022;2023-02-28T04:51:42;95200.32;;;14.94;48.88
74334;BME280;62753;40.394;-80.022;2023-02-28T04:54:07;95209.23;;;14.23;50.88
74334;BME280;62753;40.394;-80.022;2023-02-28T04:56:33;95209.33;;;14.03;50.58
74334;BME280;62753;40.394;-80.022;2023-02-28T04:58:58;95215.04;;;14.11;50.32
74334;BME280;62753;40.394;-80.022;2023-02-28T05:01:25;95216.34;;;14.33;50.79
74334;BME280;62753;40.394;-80.022;2023-02-28T05:03:49;95223.31;;;14.36;50.26
74334;BME280;62753;40.394;-80.022;2023-02-28T05:06:15;95233.23;;;15.49;48.07
74334;BME280;62753;40.394;-80.022;2023-02-28T05:08:40;95235.05;;;15.11;48.27
74334;BME280;62753;40.394;-80.022;2023-02-28T05:11:07;95241.67;;;15.19;48.59
74334;BME280;62753;40.394;-80.022;2023-02-28T05:13:30;95245.71;;;15.76;47.76
74334;BME280;62753;40.394;-80.022;2023-02-28T05:15:56;95256.09;;;15.68;47.69
74334;BME280;62753;40.394;-80.022;2023-02-28T05:18:21;95260.95;;;15.50;46.76
74334;BME280;62753;40.394;-80.022;2023-02-28T05:20:47;95260.27;;;16.22;45.48
74334;BME280;62753;40.394;-80.022;2023-02-28T05:23:13;95252.57;;;15.34;47.06
74334;BME280;62753;40.394;-80.022;2023-02-28T05:25:38;95256.30;;;15.47;47.74
74334;BME280;62753;40.394;-80.022;2023-02-28T05:28:03;95249.96;;;15.21;47.69
74334;BME280;62753;40.394;-80.022;2023-02-28T05:30:28;95252.58;;;15.40;46.59
74334;BME280;62753;40.394;-80.022;2023-02-28T05:32:54;95262.91;;;14.10;50.25
74334;BME280;62753;40.394;-80.022;2023-02-28T05:35:19;95264.66;;;14.38;49.25
74334;BME280;62753;40.394;-80.022;2023-02-28T05:37:44;95275.38;;;14.41;48.50
74334;BME280;62753;40.394;-80.022;2023-02-28T05:40:11;95276.04;;;14.34;49.04
74334;BME280;62753;40.394;-80.022;2023-02-28T05:42:35;95285.72;;;14.06;49.70
74334;BME280;62753;40.394;-80.022;2023-02-28T05:45:00;95282.42;;;14.30;49.26
74334;BME280;62753;40.394;-80.022;2023-02-28T05:47:25;95282.50;;;13.72;49.68
74334;BME280;62753;40.394;-80.022;2023-02-28T05:49:51;95295.02;;;13.49;50.76
74334;BME280;62753;40.394;-80.022;2023-02-28T05:52:16;95305.04;;;14.38;48.40
74334;BME280;62753;40.394;-80.022;2023-02-28T05:54:41;95305.64;;;14.10;48.47
74334;BME280;62753;40.394;-80.022;2023-02-28T05:57:06;95313.17;;;14.10;48.40
74334;BME280;62753;40.394;-80.022;2023-02-28T05:59:31;95310.29;;;13.66;49.65
74334;BME280;62753;40.394;-80.022;2023-02-28T06:01:57;95314.79;;;13.64;50.12
74334;BME280;62753;40.394;-80.022;2023-02-28T06:04:22;95313.93;;;12.98;51.72
74334;BME280;62753;40.394;-80.022;2023-02-28T06:06:48;95316.42;;;13.09;51.07
74334;BME280;62753;40.394;-80.022;2023-02-28T06:09:13;95320.89;;;13.56;50.07
74334;BME280;62753;40.394;-80.022;2023-02-28T06:11:38;95320.52;;;13.87;48.79
74334;BME280;62753;40.394;-80.022;2023-02-28T06:14:04;95318.68;;;13.14;50.66
74334;BME280;62753;40.394;-80.022;2023-02-28T06:16:29;95331.59;;;13.93;49.31
74334;BME280;62753;40.394;-80.022;2023-02-28T06:18:56;95330.57;;;13.69;49.30
74334;BME280;62753;40.394;-80.022;2023-02-28T06:21:19;95333.05;;;13.79;49.02
74334;BME280;62753;40.394;-80.022;2023-02-28T06:23:45;95338.28;;;13.61;49.87
74334;BME280;62753;40.394;-80.022;2023-02-28T06:26:10;95342.36;;;14.81;47.16
74334;BME280;62753;40.394;-80.022;2023-02-28T06:28:35;95342.61;;;14.37;46.80
74334;BME280;62753;40.394;-80.022;2023-02-28T06:31:07;95335.48;;;14.47;47.25
74334;BME280;62753;40.394;-80.022;2023-02-28T06:33:26;95344.02;;;14.26;49.02
74334;BME280;62753;40.394;-80.022;2023-02-28T06:35:52;95345.19;;;14.46;47.48
74334;BME280;62753;40.394;-80.022;2023-02-28T06:38:16;95351.62;;;15.43;46.45
74334;BME280;62753;40.394;-80.022;2023-02-28T06:40:42;95353.25;;;15.66;45.99
74334;BME280;62753;40.394;-80.022;2023-02-28T06:43:07;95353.45;;;15.03;46.44
74334;BME280;62753;40.394;-80.022;2023-02-28T06:45:32;95354.36;;;15.31;46.76
74334;BME280;62753;40.394;-80.022;2023-02-28T06:47:58;95353.00;;;15.63;46.05
74334;BME280;62753;40.394;-80.022;2023-02-28T06:50:23;95355.42;;;15.03;46.29
74334;BME280;62753;40.394;-80.022;2023-02-28T06:52:48;95360.95;;;15.01;47.03
74334;BME280;62753;40.394;-80.022;2023-02-28T06:55:14;95357.19;;;15.26;46.17
74334;BME280;62753;40.394;-80.022;2023-02-28T06:57:40;95358.21;;;15.52;46.49
74334;BME280;62753;40.394;-80.022;2023-02-28T07:00:08;95362.43;;;15.54;46.64
74334;BME280;62753;40.394;-80.022;2023-02-28T07:02:30;95365.40;;;15.96;45.55
74334;BME280;62753;40.394;-80.022;2023-02-28T07:04:55;95365.40;;;15.87;45.51
74334;BME280;62753;40.394;-80.022;2023-02-28T07:07:20;95367.50;;;15.76;46.59
74334;BME280;62753;40.394;-80.022;2023-02-28T07:09:46;95373.78;;;16.15;45.00
74334;BME280;62753;40.394;-80.022;2023-02-28T07:12:12;95372.10;;;16.29;44.11
74334;BME280;62753;40.394;-80.022;2023-02-28T07:14:37;95374.31;;;16.33;45.26
74334;BME280;62753;40.394;-80.022;2023-02-28T07:17:01;95374.25;;;16.10;45.35
74334;BME280;62753;40.394;-80.022;2023-02-28T07:19:27;95375.17;;;16.67;44.86
74334;BME280;62753;40.394;-80.022;2023-02-28T07:21:52;95380.61;;;16.26;44.97
74334;BME280;62753;40.394;-80.022;2023-02-28T07:24:17;95378.97;;;16.57;44.59
74334;BME280;62753;40.394;-80.022;2023-02-28T07:26:43;95379.14;;;16.05;45.95
74334;BME280;62753;40.394;-80.022;2023-02-28T07:29:08;95379.50;;;15.89;46.21
74334;BME280;62753;40.394;-80.022;2023-02-28T07:31:34;95386.26;;;16.48;44.73
74334;BME280;62753;40.394;-80.022;2023-02-28T07:33:59;95379.97;;;16.76;44.33
74334;BME280;62753;40.394;-80.022;2023-02-28T07:36:24;95380.35;;;16.84;44.47
74334;BME280;62753;40.394;-80.022;2023-02-28T07:38:49;95382.03;;;16.73;44.80
74334;BME280;62753;40.394;-80.022;2023-02-28T07:41:15;95386.11;;;16.47;44.91
74334;BME280;62753;40.394;-80.022;2023-02-28T07:43:39;95387.27;;;16.45;45.27
74334;BME280;62753;40.394;-80.022;2023-02-28T07:46:06;95388.33;;;16.49;45.20
74334;BME280;62753;40.394;-80.022;2023-02-28T07:48:30;95395.92;;;17.24;43.88
74334;BME280;62753;40.394;-80.022;2023-02-28T07:50:55;95399.64;;;16.51;45.00
74334;BME280;62753;40.394;-80.022;2023-02-28T07:53:21;95399.57;;;16.03;46.84
74334;BME280;62753;40.394;-80.022;2023-02-28T07:55:46;95396.20;;;15.59;48.21
74334;BME280;62753;40.394;-80.022;2023-02-28T07:58:12;95401.11;;;15.55;48.25
74334;BME280;62753;40.394;-80.022;2023-02-28T08:00:37;95403.40;;;14.57;50.33
74334;BME280;62753;40.394;-80.022;2023-02-28T08:03:02;95403.05;;;15.08;49.97
74334;BME280;62753;40.394;-80.022;2023-02-28T08:05:27;95403.94;;;15.68;48.57
74334;BME280;62753;40.394;-80.022;2023-02-28T08:07:53;95407.57;;;15.76;47.93
74334;BME280;62753;40.394;-80.022;2023-02-28T08:10:18;95412.15;;;15.86;47.90
74334;BME280;62753;40.394;-80.022;2023-02-28T08:12:43;95417.40;;;14.61;50.59
74334;BME280;62753;40.394;-80.022;2023-02-28T08:15:09;95416.99;;;14.95;50.56
74334;BME280;62753;40.394;-80.022;2023-02-28T08:17:34;95413.89;;;14.11;52.49
74334;BME280;62753;40.394;-80.022;2023-02-28T08:19:59;95419.34;;;13.92;53.14
74334;BME280;62753;40.394;-80.022;2023-02-28T08:22:25;95417.34;;;13.85;55.18
74334;BME280;62753;40.394;-80.022;2023-02-28T08:24:50;95414.34;;;14.16;53.10
74334;BME280;62753;40.394;-80.022;2023-02-28T08:27:15;95417.61;;;14.50;52.77
74334;BME280;62753;40.394;-80.022;2023-02-28T08:29:41;95419.56;;;13.97;53.32
74334;BME280;62753;40.394;-80.022;2023-02-28T08:32:06;95423.41;;;14.63;52.09
74334;BME280;62753;40.394;-80.022;2023-02-28T08:34:31;95429.40;;;14.46;52.49
74334;BME280;62753;40.394;-80.022;2023-02-28T08:36:57;95430.23;;;14.60;51.54
74334;BME280;62753;40.394;-80.022;2023-02-28T08:39:22;95441.03;;;13.95;53.13
74334;BME280;62753;40.394;-80.022;2023-02-28T08:41:47;95440.62;;;12.68;58.11
74334;BME280;62753;40.394;-80.022;2023-02-28T08:44:13;95444.44;;;14.18;54.09
74334;BME280;62753;40.394;-80.022;2023-02-28T08:46:38;95450.56;;;14.62;52.71
74334;BME280;62753;40.394;-80.022;2023-02-28T08:49:03;95451.82;;;14.93;51.15
74334;BME280;62753;40.394;-80.022;2023-02-28T08:51:29;95456.98;;;14.62;50.73
74334;BME280;62753;40.394;-80.022;2023-02-28T08:53:55;95463.49;;;14.59;50.49
74334;BME280;62753;40.394;-80.022;2023-02-28T08:56:20;95453.84;;;14.11;52.55
74334;BME280;62753;40.394;-80.022;2023-02-28T08:58:46;95471.81;;;14.43;52.30
74334;BME280;62753;40.394;-80.022;2023-02-28T09:01:14;95476.85;;;14.35;52.21
74334;BME280;62753;40.394;-80.022;2023-02-28T09:03:36;95480.17;;;14.57;51.94
74334;BME280;62753;40.394;-80.022;2023-02-28T09:06:02;95490.52;;;12.92;56.81
74334;BME280;62753;40.394;-80.022;2023-02-28T09:08:27;95502.18;;;14.16;54.02
74334;BME280;62753;40.394;-80.022;2023-02-28T09:10:52;95504.99;;;12.86;57.00
74334;BME280;62753;40.394;-80.022;2023-02-28T09:13:17;95510.94;;;13.03;56.77
74334;BME280;62753;40.394;-80.022;2023-02-28T09:15:42;95507.68;;;13.24;56.20
74334;BME280;62753;40.394;-80.022;2023-02-28T09:18:08;95519.94;;;13.18;56.08
74334;BME280;62753;40.394;-80.022;2023-02-28T09:20:33;95517.41;;;12.22;58.11
74334;BME280;62753;40.394;-80.022;2023-02-28T09:22:58;95517.44;;;12.71;56.15
74334;BME280;62753;40.394;-80.022;2023-02-28T09:25:24;95525.53;;;13.08;55.39
74334;BME280;62753;40.394;-80.022;2023-02-28T09:27:49;95534.80;;;13.01;55.18
74334;BME280;62753;40.394;-80.022;2023-02-28T09:30:15;95538.52;;;13.53;53.31
74334;BME280;62753;40.394;-80.022;2023-02-28T09:32:40;95538.42;;;13.21;53.33
74334;BME280;62753;40.394;-80.022;2023-02-28T09:35:06;95553.77;;;13.92;51.50
74334;BME280;62753;40.394;-80.022;2023-02-28T09:37:31;95562.65;;;13.94;50.98
74334;BME280;62753;40.394;-80.022;2023-02-28T09:39:56;95563.95;;;13.07;52.73
74334;BME280;62753;40.394;-80.022;2023-02-28T09:42:28;95573.08;;;12.49;54.81
74334;BME280;62753;40.394;-80.022;2023-02-28T09:44:48;95583.99;;;12.34;55.35
74334;BME280;62753;40.394;-80.022;2023-02-28T09:47:17;95585.80;;;11.72;56.95
74334;BME280;62753;40.394;-80.022;2023-02-28T09:49:40;95591.52;;;12.02;56.09
74334;BME280;62753;40.394;-80.022;2023-02-28T09:52:05;95611.76;;;12.04;55.31
74334;BME280;62753;40.394;-80.022;2023-02-28T09:54:31;95617.14;;;11.87;55.28
74334;BME280;62753;40.394;-80.022;2023-02-28T09:56:58;95610.03;;;11.69;55.14
74334;BME280;62753;40.394;-80.022;2023-02-28T09:59:30;95620.23;;;11.81;53.92
74334;BME280;62753;40.394;-80.022;2023-02-28T10:01:50;95633.12;;;12.37;53.11
74334;BME280;62753;40.394;-80.022;2023-02-28T10:04:16;95647.94;;;11.94;54.59
74334;BME280;62753;40.394;-80.022;2023-02-28T10:06:39;95652.81;;;12.89;51.88
74334;BME280;62753;40.394;-80.022;2023-02-28T10:09:03;95654.96;;;11.12;54.48
74334;BME280;62753;40.394;-80.022;2023-02-28T10:11:27;95678.13;;;11.48;55.49
74334;BME280;62753;40.394;-80.022;2023-02-28T10:13:53;95687.69;;;10.74;57.66
74334;BME280;62753;40.394;-80.022;2023-02-28T10:16:22;95695.46;;;10.75;57.05
74334;BME280;62753;40.394;-80.022;2023-02-28T10:18:45;95705.69;;;10.37;58.94
74334;BME280;62753;40.394;-80.022;2023-02-28T10:21:16;95721.09;;;10.46;60.27
74334;BME280;62753;40.394;-80.022;2023-02-28T10:23:35;95722.80;;;10.18;62.19
74334;BME280;62753;40.394;-80.022;2023-02-28T10:26:00;95736.58;;;10.20;60.12
74334;BME280;62753;40.394;-80.022;2023-02-28T10:28:25;95751.25;;;10.49;59.36
74334;BME280;62753;40.394;-80.022;2023-02-28T10:30:50;95755.23;;;10.55;60.00
74334;BME280;62753;40.394;-80.022;2023-02-28T10:33:21;95760.87;;;10.76;59.86
74334;BME280;62753;40.394;-80.022;2023-02-28T10:35:40;95774.07;;;11.25;58.55
74334;BME280;62753;40.394;-80.022;2023-02-28T10:38:12;95780.09;;;10.48;58.64
74334;BME280;62753;40.394;-80.022;2023-02-28T10:40:33;95778.07;;;10.52;59.23
74334;BME280;62753;40.394;-80.022;2023-02-28T10:42:57;95807.55;;;11.10;57.04
74334;BME280;62753;40.394;-80.022;2023-02-28T10:45:21;95818.29;;;11.27;57.05
74334;BME280;62753;40.394;-80.022;2023-02-28T10:47:53;95825.87;;;11.54;56.05
74334;BME280;62753;40.394;-80.022;2023-02-28T10:52:39;95846.16;;;11.36;54.40
74334;BME280;62753;40.394;-80.022;2023-02-28T10:55:13;95858.34;;;10.54;54.88
74334;BME280;62753;40.394;-80.022;2023-02-28T10:57:30;95855.60;;;9.93;56.56
74334;BME280;62753;40.394;-80.022;2023-02-28T11:02:32;95880.18;;;9.72;56.83
74334;BME280;62753;40.394;-80.022;2023-02-28T11:04:45;95893.82;;;10.33;56.03
74334;BME280;62753;40.394;-80.022;2023-02-28T11:07:17;95899.97;;;9.41;57.05
74334;BME280;62753;40.394;-80.022;2023-02-28T11:09:38;95908.46;;;9.79;56.80
74334;BME280;62753;40.394;-80.022;2023-02-28T11:12:02;95918.27;;;8.70;58.67
74334;BME280;62753;40.394;-80.022;2023-02-28T11:14:28;95936.16;;;9.10;58.10
74334;BME280;62753;40.394;-80.022;2023-02-28T11:16:52;95941.38;;;8.81;58.15
74334;BME280;62753;40.394;-80.022;2023-02-28T11:19:22;95949.26;;;9.92;56.04
74334;BME280;62753;40.394;-80.022;2023-02-28T11:21:49;95960.55;;;9.72;54.86
74334;BME280;62753;40.394;-80.022;2023-02-28T11:24:20;95961.08;;;9.70;54.85
74334;BME280;62753;40.394;-80.022;2023-02-28T11:26:40;95965.30;;;9.12;57.38
74334;BME280;62753;40.394;-80.022;2023-02-28T11:29:09;95979.35;;;8.68;56.75
74334;BME280;62753;40.394;-80.022;2023-02-28T11:31:24;95975.79;;;8.86;56.19
74334;BME280;62753;40.394;-80.022;2023-02-28T11:33:51;95973.38;;;8.36;55.55
74334;BME280;62753;40.394;-80.022;2023-02-28T11:36:19;95977.35;;;8.31;55.92
74334;BME280;62753;40.394;-80.022;2023-02-28T11:38:42;95986.74;;;7.99;57.59
74334;BME280;62753;40.394;-80.022;2023-02-28T11:41:16;95995.57;;;8.69;56.05
74334;BME280;62753;40.394;-80.022;2023-02-28T11:43:52;95996.00;;;9.61;53.01
74334;BME280;62753;40.394;-80.022;2023-02-28T11:46:07;96003.81;;;9.93;51.30
74334;BME280;62753;40.394;-80.022;2023-02-28T11:48:26;96016.31;;;10.49;50.41
74334;BME280;62753;40.394;-80.022;2023-02-28T11:50:58;96025.03;;;9.26;52.19
74334;BME280;62753;40.394;-80.022;2023-02-28T11:53:22;96032.31;;;10.27;50.13
74334;BME280;62753;40.394;-80.022;2023-02-28T11:55:43;96034.25;;;9.85;50.97
74334;BME280;62753;40.394;-80.022;2023-02-28T11:58:17;96049.86;;;9.81;51.10
74334;BME280;62753;40.394;-80.022;2023-02-28T12:00:39;96053.81;;;9.36;51.90
74334;BME280;62753;40.394;-80.022;2023-02-28T12:03:04;96066.74;;;10.54;50.47
74334;BME280;62753;40.394;-80.022;2023-02-28T12:05:27;96072.26;;;10.30;49.58
74334;BME280;62753;40.394;-80.022;2023-02-28T12:07:56;96085.06;;;10.21;49.63
74334;BME280;62753;40.394;-80.022;2023-02-28T12:10:20;96087.18;;;9.62;50.48
74334;BME280;62753;40.394;-80.022;2023-02-28T12:12:45;96088.64;;;9.65;50.26
74334;BME280;62753;40.394;-80.022;2023-02-28T12:15:16;96106.22;;;9.81;50.33
74334;BME280;62753;40.394;-80.022;2023-02-28T12:17:37;96117.16;;;9.22;50.16
74334;BME280;62753;40.394;-80.022;2023-02-28T12:19:59;96135.72;;;9.83;51.24
74334;BME280;62753;40.394;-80.022;2023-02-28T12:22:28;96135.07;;;9.69;51.54
74334;BME280;62753;40.394;-80.022;2023-02-28T12:24:55;96138.07;;;7.97;54.63
74334;BME280;62753;40.394;-80.022;2023-02-28T12:27:13;96145.29;;;8.61;53.99
74334;BME280;62753;40.394;-80.022;2023-02-28T12:29:43;96154.55;;;9.21;52.43
74334;BME280;62753;40.394;-80.022;2023-02-28T12:32:05;96157.42;;;8.30;52.79
74334;BME280;62753;40.394;-80.022;2023-02-28T12:34:29;96169.92;;;8.96;52.32
74334;BME280;62753;40.394;-80.022;2023-02-28T12:36:53;96173.54;;;8.90;52.17
74334;BME280;62753;40.394;-80.022;2023-02-28T12:39:20;96177.29;;;9.43;51.25
74334;BME280;62753;40.394;-80.022;2023-02-28T12:41:47;96183.48;;;9.67;50.76
74334;BME280;62753;40.394;-80.022;2023-02-28T12:44:11;96187.51;;;10.26;49.43
74334;BME280;62753;40.394;-80.022;2023-02-28T12:46:36;96192.18;;;10.44;48.44